sensor_id;sensor_type;location;lat;lon;timestamp;pressure;altitude;pressure_sealevel;temperature;humidity
9474;BME280;8865;47.636;7.692;2023-04-09T00:01:31;98851.06;;;7.06;100.00
9474;BME280;8865;47.636;7.692;2023-04-09T00:04:02;98851.44;;;7.00;100.00
9474;BME280;8865;47.636;7.692;2023-04-09T00:06:29;98855.09;;;6.97;100.00
9474;BME280;8865;47.636;7.692;2023-04-09T00:08:55;98848.50;;;6.92;100.00
9474;BME280;8865;47.636;7.692;2023-04-09T00:11:21;98853.16;;;6.87;100.00
9474;BME280;8865;47.636;7.692;2023-04-09T00:13:47;98854.53;;;6.78;100.00
9474;BME280;8865;47.636;7.692;2023-04-09T00:16:41;98854.38;;;6.67;100.00
9474;BME280;8865;47.636;7.692;2023-04-09T00:19:07;98859.94;;;6.60;100.00
9474;BME280;8865;47.636;7.692;2023-04-09T00:21:53;98859.66;;;6.51;100.00
9474;BME280;8865;47.636;7.692;2023-04-09T00:24:20;98854.81;;;6.44;100.00
9474;BME280;8865;47.636;7.692;2023-04-09T00:26:46;98853.34;;;6.40;100.00
9474;BME280;8865;47.636;7.692;2023-04-09T00:29:12;98853.34;;;6.40;100.00
9474;BME280;8865;47.636;7.692;2023-04-09T00:31:38;98849.78;;;6.41;100.00
9474;BME280;8865;47.636;7.692;2023-04-09T00:34:04;98846.25;;;6.42;100.00
9474;BME280;8865;47.636;7.692;2023-04-09T00:36:30;98848.22;;;6.39;100.00
9474;BME280;8865;47.636;7.692;2023-04-09T00:38:56;98842.25;;;6.37;100.00
9474;BME280;8865;47.636;7.692;2023-04-09T00:41:23;98848.50;;;6.34;100.00
9474;BME280;8865;47.636;7.692;2023-04-09T00:43:49;98844.31;;;6.32;100.00
9474;BME280;8865;47.636;7.692;2023-04-09T00:46:16;98840.19;;;6.28;100.00
9474;BME280;8865;47.636;7.692;2023-04-09T00:48:42;98837.03;;;6.22;100.00
9474;BME280;8865;47.636;7.692;2023-04-09T00:51:08;98840.66;;;6.20;100.00
9474;BME280;8865;47.636;7.692;2023-04-09T00:53:34;98849.47;;;6.17;100.00
9474;BME280;8865;47.636;7.692;2023-04-09T00:56:01;98842.69;;;6.15;100.00
9474;BME280;8865;47.636;7.692;2023-04-09T00:58:27;98842.09;;;6.10;100.00
9474;BME280;8865;47.636;7.692;2023-04-09T01:01:16;98845.16;;;6.02;100.00
9474;BME280;8865;47.636;7.692;2023-04-09T01:03:42;98841.13;;;5.96;100.00
9474;BME280;8865;47.636;7.692;2023-04-09T01:14:13;98847.13;;;5.82;100.00
9474;BME280;8865;47.636;7.692;2023-04-09T01:17:05;98848.38;;;5.75;100.00
9474;BME280;8865;47.636;7.692;2023-04-09T01:23:17;98846.66;;;5.60;100.00
9474;BME280;8865;47.636;7.692;2023-04-09T01:28:24;98841.41;;;5.45;100.00
9474;BME280;8865;47.636;7.692;2023-04-09T01:30:56;98844.84;;;5.46;100.00
9474;BME280;8865;47.636;7.692;2023-04-09T01:33:24;98845.84;;;5.43;100.00
9474;BME280;8865;47.636;7.692;2023-04-09T01:35:52;98846.94;;;5.39;100.00
9474;BME280;8865;47.636;7.692;2023-04-09T01:38:20;98849.53;;;5.39;100.00
9474;BME280;8865;47.636;7.692;2023-04-09T01:40:48;98847.78;;;5.40;100.00
9474;BME280;8865;47.636;7.692;2023-04-09T01:43:17;98846.78;;;5.42;100.00
9474;BME280;8865;47.636;7.692;2023-04-09T01:49:09;98842.00;;;5.34;100.00
9474;BME280;8865;47.636;7.692;2023-04-09T01:51:36;98841.47;;;5.28;100.00
9474;BME280;8865;47.636;7.692;2023-04-09T01:54:03;98844.94;;;5.28;100.00
9474;BME280;8865;47.636;7.692;2023-04-09T01:56:46;98838.66;;;5.16;100.00
9474;BME280;8865;47.636;7.692;2023-04-09T01:59:27;98843.31;;;5.10;100.00
9474;BME280;8865;47.636;7.692;2023-04-09T02:01:58;98836.47;;;5.09;100.00
9474;BME280;8865;47.636;7.692;2023-04-09T02:04:31;98839.22;;;5.06;100.00
9474;BME280;8865;47.636;7.692;2023-04-09T02:07:06;98842.16;;;4.99;100.00
9474;BME280;8865;47.636;7.692;2023-04-09T02:09:35;98838.13;;;4.94;100.00
9474;BME280;8865;47.636;7.692;2023-04-09T02:12:04;98836.53;;;4.91;100.00
9474;BME280;8865;47.636;7.692;2023-04-09T02:14:32;98836.84;;;4.85;100.00
9474;BME280;8865;47.636;7.692;2023-04-09T02:17:00;98834.41;;;4.82;100.00
9474;BME280;8865;47.636;7.692;2023-04-09T02:19:48;98835.38;;;4.81;100.00
9474;BME280;8865;47.636;7.692;2023-04-09T02:22:15;98827.03;;;4.74;100.00
9474;BME280;8865;47.636;7.692;2023-04-09T02:24:50;98833.50;;;4.67;100.00
9474;BME280;8865;47.636;7.692;2023-04-09T02:27:42;98833.13;;;4.57;100.00
9474;BME280;8865;47.636;7.692;2023-04-09T02:30:11;98831.31;;;4.59;100.00
9474;BME280;8865;47.636;7.692;2023-04-09T02:32:36;98834.81;;;4.58;100.00
9474;BME280;8865;47.636;7.692;2023-04-09T02:35:15;98829.78;;;4.55;100.00
9474;BME280;8865;47.636;7.692;2023-04-09T02:37:41;98835.88;;;4.54;100.00
9474;BME280;8865;47.636;7.692;2023-04-09T02:40:33;98828.41;;;4.48;100.00
9474;BME280;8865;47.636;7.692;2023-04-09T02:43:06;98837.13;;;4.47;100.00
9474;BME280;8865;47.636;7.692;2023-04-09T02:45:41;98831.16;;;4.45;100.00
9474;BME280;8865;47.636;7.692;2023-04-09T02:48:07;98838.19;;;4.43;100.00
9474;BME280;8865;47.636;7.692;2023-04-09T02:50:36;98830.50;;;4.41;100.00
9474;BME280;8865;47.636;7.692;2023-04-09T02:53:02;98836.59;;;4.40;100.00
9474;BME280;8865;47.636;7.692;2023-04-09T02:55:31;98831.50;;;4.39;100.00
9474;BME280;8865;47.636;7.692;2023-04-09T02:58:04;98835.94;;;4.37;100.00
9474;BME280;8865;47.636;7.692;2023-04-09T03:00:32;98830.06;;;4.33;100.00
9474;BME280;8865;47.636;7.692;2023-04-09T03:02:58;98838.75;;;4.32;100.00
9474;BME280;8865;47.636;7.692;2023-04-09T03:05:24;98839.59;;;4.33;100.00
9474;BME280;8865;47.636;7.692;2023-04-09T03:07:50;98831.81;;;4.33;100.00
9474;BME280;8865;47.636;7.692;2023-04-09T03:10:16;98839.59;;;4.33;100.00
9474;BME280;8865;47.636;7.692;2023-04-09T03:12:42;98831.97;;;4.29;100.00
9474;BME280;8865;47.636;7.692;2023-04-09T03:15:10;98827.78;;;4.27;100.00
9474;BME280;8865;47.636;7.692;2023-04-09T03:17:36;98841.66;;;4.26;100.00
9474;BME280;8865;47.636;7.692;2023-04-09T03:20:02;98828.94;;;4.21;100.00
9474;BME280;8865;47.636;7.692;2023-04-09T03:22:28;98834.28;;;4.18;100.00
9474;BME280;8865;47.636;7.692;2023-04-09T03:24:55;98827.88;;;4.08;100.00
9474;BME280;8865;47.636;7.692;2023-04-09T03:27:21;98827.03;;;4.07;100.00
9474;BME280;8865;47.636;7.692;2023-04-09T03:29:46;98831.44;;;4.05;100.00
9474;BME280;8865;47.636;7.692;2023-04-09T03:32:12;98824.91;;;3.98;100.00
9474;BME280;8865;47.636;7.692;2023-04-09T03:34:38;98826.47;;;4.01;100.00
9474;BME280;8865;47.636;7.692;2023-04-09T03:37:05;98828.03;;;4.05;100.00
9474;BME280;8865;47.636;7.692;2023-04-09T03:39:31;98828.03;;;4.05;100.00
9474;BME280;8865;47.636;7.692;2023-04-09T03:41:57;98821.00;;;4.07;100.00
9474;BME280;8865;47.636;7.692;2023-04-09T03:44:24;98835.47;;;4.11;100.00
9474;BME280;8865;47.636;7.692;2023-04-09T03:46:50;98834.44;;;4.15;100.00
9474;BME280;8865;47.636;7.692;2023-04-09T03:49:42;98821.38;;;4.17;100.00
9474;BME280;8865;47.636;7.692;2023-04-09T03:52:08;98829.25;;;4.15;100.00
9474;BME280;8865;47.636;7.692;2023-04-09T03:54:34;98828.53;;;4.11;100.00
9474;BME280;8865;47.636;7.692;2023-04-09T03:57:00;98834.66;;;4.10;100.00
9474;BME280;8865;47.636;7.692;2023-04-09T03:59:26;98826.97;;;4.09;100.00
9474;BME280;8865;47.636;7.692;2023-04-09T04:01:52;98828.84;;;4.05;100.00
9474;BME280;8865;47.636;7.692;2023-04-09T04:04:18;98828.91;;;4.04;100.00
9474;BME280;8865;47.636;7.692;2023-04-09T04:06:44;98832.44;;;4.03;100.00
9474;BME280;8865;47.636;7.692;2023-04-09T04:09:10;98826.47;;;4.01;100.00
9474;BME280;8865;47.636;7.692;2023-04-09T04:11:39;98829.16;;;3.99;100.00
9474;BME280;8865;47.636;7.692;2023-04-09T04:14:05;98825.97;;;3.94;100.00
9474;BME280;8865;47.636;7.692;2023-04-09T04:16:54;98830.47;;;3.90;100.00
9474;BME280;8865;47.636;7.692;2023-04-09T04:19:39;98836.09;;;3.81;100.00
9474;BME280;8865;47.636;7.692;2023-04-09T04:22:20;98841.66;;;3.73;100.00
9474;BME280;8865;47.636;7.692;2023-04-09T04:24:46;98841.09;;;3.67;100.00
9474;BME280;8865;47.636;7.692;2023-04-09T04:27:12;98841.25;;;3.64;100.00
9474;BME280;8865;47.636;7.692;2023-04-09T04:29:38;98836.06;;;3.64;100.00
9474;BME280;8865;47.636;7.692;2023-04-09T04:32:04;98845.00;;;3.58;100.00
9474;BME280;8865;47.636;7.692;2023-04-09T04:34:30;98845.00;;;3.58;100.00
9474;BME280;8865;47.636;7.692;2023-04-09T04:36:56;98845.00;;;3.58;100.00
9474;BME280;8865;47.636;7.692;2023-04-09T04:39:22;98847.50;;;3.60;100.00
9474;BME280;8865;47.636;7.692;2023-04-09T04:41:48;98851.16;;;3.55;100.00
9474;BME280;8865;47.636;7.692;2023-04-09T04:44:38;98848.63;;;3.54;100.00
9474;BME280;8865;47.636;7.692;2023-04-09T04:47:24;98851.44;;;3.49;100.00
9474;BME280;8865;47.636;7.692;2023-04-09T04:49:51;98853.22;;;3.49;100.00
9474;BME280;8865;47.636;7.692;2023-04-09T04:52:17;98856.78;;;3.46;100.00
9474;BME280;8865;47.636;7.692;2023-04-09T04:54:43;98860.19;;;3.47;100.00
9474;BME280;8865;47.636;7.692;2023-04-09T04:57:09;98851.75;;;3.43;100.00
9474;BME280;8865;47.636;7.692;2023-04-09T04:59:36;98851.81;;;3.42;100.00
9474;BME280;8865;47.636;7.692;2023-04-09T05:02:11;98856.25;;;3.39;100.00
9474;BME280;8865;47.636;7.692;2023-04-09T05:04:43;98851.88;;;3.40;100.00
9474;BME280;8865;47.636;7.692;2023-04-09T05:07:10;98851.97;;;3.38;100.00
9474;BME280;8865;47.636;7.692;2023-04-09T05:09:37;98851.06;;;3.39;100.00
9474;BME280;8865;47.636;7.692;2023-04-09T05:12:03;98848.41;;;3.41;100.00
9474;BME280;8865;47.636;7.692;2023-04-09T05:14:42;98851.88;;;3.40;100.00
9474;BME280;8865;47.636;7.692;2023-04-09T05:17:20;98854.63;;;3.37;100.00
9474;BME280;8865;47.636;7.692;2023-04-09T05:19:53;98849.50;;;3.35;100.00
9474;BME280;8865;47.636;7.692;2023-04-09T05:22:28;98845.00;;;3.39;100.00
9474;BME280;8865;47.636;7.692;2023-04-09T05:25:00;98848.47;;;3.39;100.00
9474;BME280;8865;47.636;7.692;2023-04-09T05:27:27;98852.63;;;3.42;100.00
9474;BME280;8865;47.636;7.692;2023-04-09T05:29:53;98855.16;;;3.44;100.00
9474;BME280;8865;47.636;7.692;2023-04-09T05:32:27;98843.91;;;3.45;100.00
9474;BME280;8865;47.636;7.692;2023-04-09T05:35:07;98849.00;;;3.46;100.00
9474;BME280;8865;47.636;7.692;2023-04-09T05:37:39;98845.38;;;3.50;100.00
9474;BME280;8865;47.636;7.692;2023-04-09T05:40:18;98848.56;;;3.55;100.00
9474;BME280;8865;47.636;7.692;2023-04-09T05:42:53;98848.56;;;3.55;100.00
9474;BME280;8865;47.636;7.692;2023-04-09T05:45:19;98850.88;;;3.62;100.00
9474;BME280;8865;47.636;7.692;2023-04-09T05:47:46;98850.56;;;3.68;100.00
9474;BME280;8865;47.636;7.692;2023-04-09T17:52:18;98631.53;;;14.36;46.48
9474;BME280;8865;47.636;7.692;2023-04-09T17:54:45;98636.16;;;14.24;47.94
9474;BME280;8865;47.636;7.692;2023-04-09T17:57:12;98633.28;;;14.18;48.68
9474;BME280;8865;47.636;7.692;2023-04-09T17:59:37;98641.22;;;14.08;49.07
9474;BME280;8865;47.636;7.692;2023-04-09T18:02:04;98644.72;;;13.99;49.28
9474;BME280;8865;47.636;7.692;2023-04-09T18:04:30;98646.69;;;13.97;49.06
9474;BME280;8865;47.636;7.692;2023-04-09T18:06:58;98652.00;;;13.87;49.39
9474;BME280;8865;47.636;7.692;2023-04-09T18:09:24;98648.13;;;13.81;50.76
9474;BME280;8865;47.636;7.692;2023-04-09T18:11:50;98650.66;;;13.73;52.52
9474;BME280;8865;47.636;7.692;2023-04-09T18:14:21;98658.41;;;13.65;51.40
9474;BME280;8865;47.636;7.692;2023-04-09T18:16:47;98664.25;;;13.58;52.82
9474;BME280;8865;47.636;7.692;2023-04-09T18:19:13;98662.44;;;13.49;54.55
9474;BME280;8865;47.636;7.692;2023-04-09T18:21:40;98657.22;;;13.39;57.10
9474;BME280;8865;47.636;7.692;2023-04-09T18:24:06;98663.28;;;13.30;55.67
9474;BME280;8865;47.636;7.692;2023-04-09T18:26:32;98670.19;;;13.21;55.88
9474;BME280;8865;47.636;7.692;2023-04-09T18:28:59;98682.25;;;13.14;57.26
9474;BME280;8865;47.636;7.692;2023-04-09T18:31:25;98674.50;;;13.03;59.58
9474;BME280;8865;47.636;7.692;2023-04-09T18:33:51;98682.25;;;12.95;59.10
9474;BME280;8865;47.636;7.692;2023-04-09T18:36:17;98683.06;;;12.85;60.68
9474;BME280;8865;47.636;7.692;2023-04-09T18:38:43;98691.75;;;12.76;60.58
9474;BME280;8865;47.636;7.692;2023-04-09T18:41:10;98693.25;;;12.69;67.78
9474;BME280;8865;47.636;7.692;2023-04-09T18:43:41;98688.94;;;12.58;71.27
9474;BME280;8865;47.636;7.692;2023-04-09T18:46:08;98694.28;;;12.47;73.08
9474;BME280;8865;47.636;7.692;2023-04-09T18:48:33;98708.22;;;12.38;79.75
9474;BME280;8865;47.636;7.692;2023-04-09T18:51:00;98706.53;;;12.27;87.00
9474;BME280;8865;47.636;7.692;2023-04-09T18:53:27;98712.81;;;12.14;93.83
9474;BME280;8865;47.636;7.692;2023-04-09T18:55:53;98709.47;;;12.03;93.67
9474;BME280;8865;47.636;7.692;2023-04-09T18:58:19;98718.22;;;11.92;97.96
9474;BME280;8865;47.636;7.692;2023-04-09T19:00:46;98709.72;;;11.78;95.15
9474;BME280;8865;47.636;7.692;2023-04-09T19:03:15;98714.91;;;11.69;100.00
9474;BME280;8865;47.636;7.692;2023-04-09T19:05:42;98715.78;;;11.58;98.65
9474;BME280;8865;47.636;7.692;2023-04-09T19:08:08;98729.41;;;11.52;100.00
9474;BME280;8865;47.636;7.692;2023-04-09T19:10:34;98717.91;;;11.43;100.00
9474;BME280;8865;47.636;7.692;2023-04-09T19:13:01;98729.03;;;11.35;100.00
9474;BME280;8865;47.636;7.692;2023-04-09T19:15:27;98730.47;;;11.28;100.00
9474;BME280;8865;47.636;7.692;2023-04-09T19:17:54;98730.28;;;11.20;100.00
9474;BME280;8865;47.636;7.692;2023-04-09T19:20:21;98736.13;;;11.12;100.00
9474;BME280;8865;47.636;7.692;2023-04-09T19:22:48;98742.13;;;11.03;100.00
9474;BME280;8865;47.636;7.692;2023-04-09T19:25:15;98738.69;;;10.91;100.00
9474;BME280;8865;47.636;7.692;2023-04-09T19:27:42;98735.97;;;10.81;100.00
9474;BME280;8865;47.636;7.692;2023-04-09T19:30:09;98734.09;;;10.72;100.00
9474;BME280;8865;47.636;7.692;2023-04-09T19:32:35;98733.72;;;10.65;100.00
9474;BME280;8865;47.636;7.692;2023-04-09T19:35:01;98735.16;;;10.58;100.00
9474;BME280;8865;47.636;7.692;2023-04-09T19:37:28;98735.75;;;10.50;100.00
9474;BME280;8865;47.636;7.692;2023-04-09T19:39:56;98742.44;;;10.43;100.00
9474;BME280;8865;47.636;7.692;2023-04-09T19:42:23;98742.28;;;10.33;100.00
9474;BME280;8865;47.636;7.692;2023-04-09T19:44:49;98749.19;;;10.23;100.00
9474;BME280;8865;47.636;7.692;2023-04-09T19:47:15;98748.09;;;10.14;100.00
9474;BME280;8865;47.636;7.692;2023-04-09T19:49:41;98752.97;;;10.08;100.00
9474;BME280;8865;47.636;7.692;2023-04-09T19:52:08;98743.19;;;9.98;100.00
9474;BME280;8865;47.636;7.692;2023-04-09T19:54:35;98741.03;;;9.92;100.00
9474;BME280;8865;47.636;7.692;2023-04-09T19:57:02;98744.94;;;9.87;100.00
9474;BME280;8865;47.636;7.692;2023-04-09T19:59:29;98744.38;;;9.83;100.00
9474;BME280;8865;47.636;7.692;2023-04-09T20:01:56;98750.66;;;9.80;100.00
9474;BME280;8865;47.636;7.692;2023-04-09T20:04:23;98746.81;;;9.73;100.00
9474;BME280;8865;47.636;7.692;2023-04-09T20:06:49;98750.50;;;9.71;100.00
9474;BME280;8865;47.636;7.692;2023-04-09T20:09:19;98750.84;;;9.66;100.00
9474;BME280;8865;47.636;7.692;2023-04-09T20:11:51;98747.84;;;9.59;100.00
9474;BME280;8865;47.636;7.692;2023-04-09T20:14:23;98745.56;;;9.55;100.00
9474;BME280;8865;47.636;7.692;2023-04-09T20:16:48;98753.75;;;9.50;100.00
9474;BME280;8865;47.636;7.692;2023-04-09T20:19:14;98738.41;;;9.45;100.00
9474;BME280;8865;47.636;7.692;2023-04-09T20:21:40;98743.03;;;9.42;100.00
9474;BME280;8865;47.636;7.692;2023-04-09T20:24:08;98749.53;;;9.36;100.00
9474;BME280;8865;47.636;7.692;2023-04-09T20:26:34;98743.94;;;9.29;100.00
9474;BME280;8865;47.636;7.692;2023-04-09T20:29:00;98746.25;;;9.21;100.00
9474;BME280;8865;47.636;7.692;2023-04-09T20:31:27;98745.16;;;9.13;100.00
9474;BME280;8865;47.636;7.692;2023-04-09T20:33:53;98745.59;;;9.06;100.00
9474;BME280;8865;47.636;7.692;2023-04-09T20:36:19;98740.72;;;9.02;100.00
9474;BME280;8865;47.636;7.692;2023-04-09T20:38:46;98739.59;;;8.93;100.00
9474;BME280;8865;47.636;7.692;2023-04-09T20:41:12;98749.66;;;8.86;100.00
9474;BME280;8865;47.636;7.692;2023-04-09T20:43:38;98738.69;;;8.81;100.00
9474;BME280;8865;47.636;7.692;2023-04-09T20:46:04;98739.97;;;8.75;100.00
9474;BME280;8865;47.636;7.692;2023-04-09T20:48:30;98735.28;;;8.68;100.00
9474;BME280;8865;47.636;7.692;2023-04-09T20:50:57;98740.84;;;8.63;100.00
9474;BME280;8865;47.636;7.692;2023-04-09T20:53:23;98736.25;;;8.54;100.00
9474;BME280;8865;47.636;7.692;2023-04-09T20:55:50;98738.34;;;8.49;100.00
9474;BME280;8865;47.636;7.692;2023-04-09T20:58:17;98741.34;;;8.43;100.00
9474;BME280;8865;47.636;7.692;2023-04-09T21:00:44;98731.94;;;8.40;100.00
9474;BME280;8865;47.636;7.692;2023-04-09T21:03:10;98735.72;;;8.36;100.00
9474;BME280;8865;47.636;7.692;2023-04-09T21:05:36;98730.94;;;8.30;100.00
9474;BME280;8865;47.636;7.692;2023-04-09T21:08:02;98735.50;;;8.26;100.00
9474;BME280;8865;47.636;7.692;2023-04-09T21:10:28;98737.00;;;8.17;100.00
9474;BME280;8865;47.636;7.692;2023-04-09T21:12:54;98738.13;;;8.13;100.00
9474;BME280;8865;47.636;7.692;2023-04-09T21:15:20;98733.13;;;8.10;100.00
9474;BME280;8865;47.636;7.692;2023-04-09T21:17:46;98731.88;;;8.03;100.00
9474;BME280;8865;47.636;7.692;2023-04-09T21:20:12;98741.06;;;7.96;100.00
9474;BME280;8865;47.636;7.692;2023-04-09T21:22:40;98742.31;;;7.90;100.00
9474;BME280;8865;47.636;7.692;2023-04-09T21:25:06;98747.09;;;7.83;100.00
9474;BME280;8865;47.636;7.692;2023-04-09T21:27:32;98750.13;;;7.77;100.00
9474;BME280;8865;47.636;7.692;2023-04-09T21:29:58;98746.03;;;7.73;100.00
9474;BME280;8865;47.636;7.692;2023-04-09T21:32:24;98739.34;;;7.69;100.00
9474;BME280;8865;47.636;7.692;2023-04-09T21:34:50;98740.41;;;7.66;100.00
9474;BME280;8865;47.636;7.692;2023-04-09T21:37:16;98739.97;;;7.60;100.00
9474;BME280;8865;47.636;7.692;2023-04-09T21:39:42;98734.75;;;7.60;100.00
9474;BME280;8865;47.636;7.692;2023-04-09T21:42:08;98737.56;;;7.57;100.00
9474;BME280;8865;47.636;7.692;2023-04-09T21:44:34;98736.84;;;7.55;100.00
9474;BME280;8865;47.636;7.692;2023-04-09T21:47:00;98733.50;;;7.53;100.00
9474;BME280;8865;47.636;7.692;2023-04-09T21:49:26;98730.34;;;7.47;100.00
9474;BME280;8865;47.636;7.692;2023-04-09T21:51:52;98724.81;;;7.39;100.00
9474;BME280;8865;47.636;7.692;2023-04-09T21:54:20;98728.75;;;7.32;100.00
9474;BME280;8865;47.636;7.692;2023-04-09T21:56:46;98728.63;;;7.21;100.00
9474;BME280;8865;47.636;7.692;2023-04-09T21:59:12;98729.44;;;7.21;100.00
9474;BME280;8865;47.636;7.692;2023-04-09T22:01:38;98723.69;;;7.16;100.00
9474;BME280;8865;47.636;7.692;2023-04-09T22:04:04;98729.00;;;7.14;100.00
9474;BME280;8865;47.636;7.692;2023-04-09T22:06:30;98723.91;;;7.13;100.00
9474;BME280;8865;47.636;7.692;2023-04-09T22:08:57;98731.81;;;7.11;100.00
9474;BME280;8865;47.636;7.692;2023-04-09T22:11:25;98742.34;;;7.10;100.00
9474;BME280;8865;47.636;7.692;2023-04-09T22:13:57;98736.25;;;7.09;100.00
9474;BME280;8865;47.636;7.692;2023-04-09T22:16:23;98732.00;;;7.08;100.00
9474;BME280;8865;47.636;7.692;2023-04-09T22:18:50;98736.38;;;7.08;100.00
9474;BME280;8865;47.636;7.692;2023-04-09T22:21:17;98748.03;;;7.02;100.00
9474;BME280;8865;47.636;7.692;2023-04-09T22:23:43;98747.56;;;6.95;100.00
9474;BME280;8865;47.636;7.692;2023-04-09T22:26:09;98749.53;;;6.92;100.00
9474;BME280;8865;47.636;7.692;2023-04-09T22:28:35;98754.22;;;6.87;100.00
9474;BME280;8865;47.636;7.692;2023-04-09T22:31:01;98748.25;;;6.85;100.00
9474;BME280;8865;47.636;7.692;2023-04-09T22:33:27;98746.78;;;6.81;100.00
9474;BME280;8865;47.636;7.692;2023-04-09T22:35:53;98753.19;;;6.75;100.00
9474;BME280;8865;47.636;7.692;2023-04-09T22:38:20;98749.88;;;6.73;100.00
9474;BME280;8865;47.636;7.692;2023-04-09T22:40:47;98751.06;;;6.67;100.00
9474;BME280;8865;47.636;7.692;2023-04-09T22:43:13;98750.34;;;6.65;100.00
9474;BME280;8865;47.636;7.692;2023-04-09T22:45:40;98746.78;;;6.66;100.00
9474;BME280;8865;47.636;7.692;2023-04-09T22:48:06;98742.72;;;6.62;100.00
9474;BME280;8865;47.636;7.692;2023-04-09T22:50:33;98745.25;;;6.64;100.00
9474;BME280;8865;47.636;7.692;2023-04-09T22:52:59;98740.97;;;6.63;100.00
9474;BME280;8865;47.636;7.692;2023-04-09T22:55:25;98743.66;;;6.61;100.00
9474;BME280;8865;47.636;7.692;2023-04-09T22:57:52;98746.53;;;6.56;100.00
9474;BME280;8865;47.636;7.692;2023-04-09T23:00:19;98742.34;;;6.54;100.00
9474;BME280;8865;47.636;7.692;2023-04-09T23:02:45;98745.13;;;6.51;100.00
9474;BME280;8865;47.636;7.692;2023-04-09T23:05:12;98742.19;;;6.42;100.00
9474;BME280;8865;47.636;7.692;2023-04-09T23:07:38;98742.09;;;6.44;100.00
9474;BME280;8865;47.636;7.692;2023-04-09T23:10:05;98746.56;;;6.42;100.00
9474;BME280;8865;47.636;7.692;2023-04-09T23:12:31;98746.19;;;6.34;100.00
9474;BME280;8865;47.636;7.692;2023-04-09T23:14:57;98745.44;;;6.32;100.00
9474;BME280;8865;47.636;7.692;2023-04-09T23:17:23;98749.06;;;6.29;100.00
9474;BME280;8865;47.636;7.692;2023-04-09T23:19:49;98741.34;;;6.13;100.00
9474;BME280;8865;47.636;7.692;2023-04-09T23:22:17;98737.25;;;6.09;100.00
9474;BME280;8865;47.636;7.692;2023-04-09T23:24:43;98732.88;;;6.10;100.00
9474;BME280;8865;47.636;7.692;2023-04-09T23:27:09;98737.34;;;6.07;100.00
9474;BME280;8865;47.636;7.692;2023-04-09T23:29:35;98739.22;;;6.05;100.00
9474;BME280;8865;47.636;7.692;2023-04-09T23:32:01;98738.34;;;6.05;100.00
9474;BME280;8865;47.636;7.692;2023-04-09T23:34:27;98737.53;;;6.04;100.00
9474;BME280;8865;47.636;7.692;2023-04-09T23:36:53;98738.44;;;6.03;100.00
9474;BME280;8865;47.636;7.692;2023-04-09T23:39:19;98738.81;;;5.97;100.00
9474;BME280;8865;47.636;7.692;2023-04-09T23:41:45;98742.50;;;5.93;100.00
9474;BME280;8865;47.636;7.692;2023-04-09T23:44:11;98744.34;;;5.91;100.00
9474;BME280;8865;47.636;7.692;2023-04-09T23:46:37;98750.69;;;5.87;100.00
9474;BME280;8865;47.636;7.692;2023-04-09T23:49:04;98741.66;;;5.78;100.00
9474;BME280;8865;47.636;7.692;2023-04-09T23:51:30;98748.78;;;5.75;100.00
9474;BME280;8865;47.636;7.692;2023-04-09T23:53:56;98744.44;;;5.75;100.00
9474;BME280;8865;47.636;7.692;2023-04-09T23:56:26;98734.38;;;5.69;100.00
9474;BME280;8865;47.636;7.692;2023-04-09T23:58:53;98734.47;;;5.67;100.00
